createdAt,value
2022-10-10T00:01:31.112Z,6.67
2022-10-10T00:03:59.434Z,6.75
2022-10-10T00:06:31.920Z,6.74
2022-10-10T00:09:01.053Z,6.80
2022-10-10T00:11:28.725Z,6.92
2022-10-10T00:13:55.958Z,6.92
2022-10-10T00:16:23.421Z,6.90
2022-10-10T00:18:54.968Z,6.94
2022-10-10T00:21:22.395Z,6.97
2022-10-10T00:23:49.821Z,6.86
2022-10-10T00:26:19.133Z,6.78
2022-10-10T00:28:49.473Z,6.76
2022-10-10T00:31:17.082Z,6.82
2022-10-10T00:33:44.786Z,6.79
2022-10-10T00:36:12.208Z,6.71
2022-10-10T00:38:39.521Z,6.67
2022-10-10T00:41:07.586Z,6.69
2022-10-10T00:43:35.331Z,6.65
2022-10-10T00:46:02.688Z,6.65
2022-10-10T00:48:35.437Z,6.58
2022-10-10T00:51:11.173Z,6.74
2022-10-10T00:53:47.713Z,6.74
2022-10-10T00:56:21.513Z,6.70
2022-10-10T00:58:53.735Z,6.51
2022-10-10T01:01:21.030Z,6.29
2022-10-10T01:03:48.636Z,6.24
2022-10-10T01:06:16.069Z,6.10
2022-10-10T01:08:43.831Z,6.04
2022-10-10T01:11:33.015Z,5.92
2022-10-10T01:14:35.202Z,5.88
2022-10-10T01:17:26.458Z,5.92
2022-10-10T01:20:19.073Z,5.81
2022-10-10T01:23:02.455Z,5.85
2022-10-10T01:25:37.242Z,5.95
2022-10-10T01:28:37.625Z,5.96
2022-10-10T01:31:08.657Z,6.10
2022-10-10T01:34:17.995Z,6.11
2022-10-10T01:37:09.723Z,5.99
2022-10-10T01:39:48.572Z,5.95
2022-10-10T01:42:52.261Z,6.04
2022-10-10T01:45:20.732Z,5.96
2022-10-10T01:47:49.746Z,5.89
2022-10-10T01:50:21.581Z,5.85
2022-10-10T01:53:05.039Z,5.96
2022-10-10T01:55:47.108Z,6.15
2022-10-10T01:58:48.009Z,6.12
2022-10-10T02:01:53.023Z,6.09
2022-10-10T02:04:42.467Z,6.07
2022-10-10T02:07:42.176Z,5.94
2022-10-10T02:10:11.478Z,5.97
2022-10-10T02:12:40.340Z,5.84
2022-10-10T02:15:17.103Z,5.75
2022-10-10T02:17:47.979Z,5.68
2022-10-10T02:20:18.421Z,5.72
2022-10-10T02:22:47.101Z,5.78
2022-10-10T02:25:14.762Z,5.78
2022-10-10T02:28:24.105Z,5.74
2022-10-10T02:30:56.275Z,5.65
2022-10-10T02:33:51.313Z,5.60
2022-10-10T02:36:20.247Z,5.65
2022-10-10T02:38:50.128Z,5.72
2022-10-10T02:41:20.146Z,5.70
2022-10-10T02:43:49.775Z,5.69
2022-10-10T02:46:18.029Z,5.63
2022-10-10T02:48:45.750Z,5.62
2022-10-10T02:51:15.682Z,5.60
2022-10-10T02:53:43.046Z,5.87
2022-10-10T02:56:10.499Z,5.93
2022-10-10T02:58:37.811Z,5.87
2022-10-10T03:01:05.324Z,5.86
2022-10-10T03:03:32.553Z,5.78
2022-10-10T03:05:59.857Z,5.72
2022-10-10T03:08:27.101Z,5.89
2022-10-10T03:11:00.569Z,5.82
2022-10-10T03:13:27.895Z,5.81
2022-10-10T03:15:55.474Z,5.81
2022-10-10T03:18:23.330Z,5.70
2022-10-10T03:20:56.254Z,5.68
2022-10-10T03:23:25.363Z,5.57
2022-10-10T03:25:53.091Z,5.50
2022-10-10T03:28:21.015Z,5.63
2022-10-10T03:30:48.877Z,5.64
2022-10-10T03:33:16.447Z,5.61
2022-10-10T03:35:43.724Z,5.57
2022-10-10T03:38:13.606Z,5.46
2022-10-10T03:40:43.112Z,5.48
2022-10-10T03:43:13.079Z,5.46
2022-10-10T03:45:44.099Z,5.46
2022-10-10T03:48:12.099Z,5.57
2022-10-10T03:50:39.794Z,5.53
2022-10-10T03:53:07.844Z,5.43
2022-10-10T03:55:35.151Z,5.36
2022-10-10T03:58:02.334Z,5.33
2022-10-10T04:00:29.516Z,5.33
2022-10-10T04:02:56.773Z,5.33
2022-10-10T04:05:24.060Z,5.31
2022-10-10T04:07:51.204Z,5.22
2022-10-10T04:10:18.585Z,5.22
2022-10-10T04:12:45.752Z,5.20
2022-10-10T04:15:13.019Z,5.24
2022-10-10T04:17:40.147Z,5.26
2022-10-10T04:20:07.927Z,5.28
2022-10-10T04:22:35.210Z,5.29
2022-10-10T04:25:02.438Z,5.21
2022-10-10T04:27:29.685Z,5.18
2022-10-10T04:29:56.995Z,5.15
2022-10-10T04:32:24.165Z,5.18
2022-10-10T04:34:51.791Z,5.19
2022-10-10T04:37:18.936Z,5.20
2022-10-10T04:39:46.090Z,5.39
2022-10-10T04:42:13.335Z,5.39
2022-10-10T04:44:40.711Z,5.42
2022-10-10T04:47:08.001Z,5.43
2022-10-10T04:49:35.188Z,5.38
2022-10-10T04:52:02.597Z,5.55
2022-10-10T04:54:29.948Z,5.53
2022-10-10T04:56:57.272Z,5.50
2022-10-10T04:59:24.647Z,5.55
2022-10-10T05:01:51.877Z,5.64
2022-10-10T05:04:19.265Z,5.71
2022-10-10T05:06:46.674Z,5.83
2022-10-10T05:09:14.035Z,6.09
2022-10-10T05:11:41.366Z,6.16
2022-10-10T05:14:08.735Z,6.36
2022-10-10T05:16:36.303Z,6.37
2022-10-10T05:19:03.627Z,6.50
2022-10-10T05:21:31.742Z,6.55
2022-10-10T05:23:59.067Z,6.67
2022-10-10T05:26:27.011Z,6.81
2022-10-10T05:28:54.709Z,7.02
2022-10-10T05:31:22.020Z,7.44
2022-10-10T05:33:49.372Z,7.79
2022-10-10T05:36:16.835Z,7.96
2022-10-10T05:38:44.569Z,8.06
2022-10-10T05:41:12.712Z,8.19
2022-10-10T05:43:40.160Z,8.40
2022-10-10T05:46:07.425Z,8.49
2022-10-10T05:48:34.673Z,8.36
2022-10-10T05:51:02.070Z,8.51
2022-10-10T05:53:30.730Z,8.72
2022-10-10T05:55:57.916Z,8.72
2022-10-10T05:58:26.802Z,9.01
2022-10-10T06:00:54.215Z,9.62
2022-10-10T06:03:21.402Z,10.60
2022-10-10T06:05:52.257Z,11.92
2022-10-10T06:08:19.430Z,12.95
2022-10-10T06:10:47.246Z,13.89
2022-10-10T06:13:21.561Z,14.60
2022-10-10T06:15:52.433Z,14.91
2022-10-10T06:18:19.623Z,15.33
2022-10-10T06:20:47.040Z,16.03
2022-10-10T06:23:14.283Z,16.01
2022-10-10T06:25:42.049Z,16.44
2022-10-10T06:28:11.271Z,16.67
2022-10-10T06:30:45.235Z,16.43
2022-10-10T06:33:13.309Z,14.91
2022-10-10T06:35:45.254Z,13.88
2022-10-10T06:38:13.759Z,13.29
2022-10-10T06:40:41.148Z,12.22
2022-10-10T06:43:12.314Z,11.65
2022-10-10T06:45:42.770Z,11.51
2022-10-10T06:48:11.339Z,11.52
2022-10-10T06:50:38.628Z,11.48
2022-10-10T06:53:06.962Z,11.66
2022-10-10T06:55:34.295Z,11.92
2022-10-10T06:58:01.615Z,12.25
2022-10-10T07:00:28.903Z,12.50
2022-10-10T07:02:56.253Z,12.57
2022-10-10T07:05:23.620Z,12.58
2022-10-10T07:07:52.559Z,12.58
2022-10-10T07:10:19.842Z,12.79
2022-10-10T07:12:47.292Z,13.37
2022-10-10T07:15:14.646Z,13.44
2022-10-10T07:17:41.916Z,14.08
2022-10-10T07:20:09.751Z,15.01
2022-10-10T07:22:37.021Z,15.86
2022-10-10T07:25:04.774Z,16.64
2022-10-10T07:27:32.074Z,18.88
2022-10-10T07:29:59.288Z,20.27
2022-10-10T07:32:26.458Z,20.23
2022-10-10T07:34:54.026Z,21.22
2022-10-10T07:37:21.317Z,22.46
2022-10-10T07:39:48.535Z,22.78
2022-10-10T07:42:15.741Z,22.57
2022-10-10T07:44:42.973Z,23.55
2022-10-10T07:47:10.477Z,24.22
2022-10-10T07:49:37.991Z,24.54
2022-10-10T07:52:05.260Z,24.28
2022-10-10T07:54:33.078Z,23.96
2022-10-10T07:57:00.208Z,25.04
2022-10-10T07:59:27.518Z,25.01
2022-10-10T08:01:54.816Z,24.98
2022-10-10T08:04:22.110Z,24.14
2022-10-10T08:06:49.455Z,25.00
2022-10-10T08:09:16.710Z,25.32
2022-10-10T08:11:44.180Z,25.78
2022-10-10T08:14:11.698Z,26.47
2022-10-10T08:16:38.934Z,27.52
2022-10-10T08:19:06.189Z,27.43
2022-10-10T08:21:36.142Z,27.88
2022-10-10T08:24:03.567Z,27.31
2022-10-10T08:26:30.905Z,27.92
2022-10-10T08:28:58.279Z,27.95
2022-10-10T08:31:25.568Z,28.25
2022-10-10T08:33:53.023Z,27.80
2022-10-10T08:36:23.832Z,27.68
2022-10-10T08:38:53.507Z,27.65
2022-10-10T08:41:45.106Z,28.06
2022-10-10T08:44:37.560Z,29.18
2022-10-10T08:47:10.718Z,29.09
2022-10-10T08:49:44.447Z,28.85
2022-10-10T08:52:30.329Z,29.08
2022-10-10T08:55:01.683Z,29.12
2022-10-10T08:58:12.212Z,29.47
2022-10-10T09:00:49.193Z,30.06
2022-10-10T09:03:40.547Z,28.73
2022-10-10T09:06:19.244Z,29.66
2022-10-10T09:09:35.175Z,30.14
2022-10-10T09:12:40.643Z,30.45
2022-10-10T09:15:37.272Z,31.46
2022-10-10T09:18:52.785Z,30.74
2022-10-10T09:21:31.107Z,30.62
2022-10-10T09:24:19.869Z,32.57
2022-10-10T09:27:12.030Z,32.83
2022-10-10T09:30:13.640Z,33.58
2022-10-10T09:32:48.772Z,33.83
2022-10-10T09:35:27.064Z,35.45
2022-10-10T09:38:27.647Z,35.14
2022-10-10T09:41:08.471Z,33.97
2022-10-10T09:43:35.771Z,33.87
2022-10-10T09:46:03.292Z,33.09
2022-10-10T09:48:42.674Z,33.60
2022-10-10T09:51:17.412Z,32.17
2022-10-10T09:53:47.449Z,30.61
2022-10-10T09:56:34.053Z,30.91
2022-10-10T09:59:01.425Z,31.08
2022-10-10T10:01:33.063Z,30.61
2022-10-10T10:04:27.843Z,31.40
2022-10-10T10:07:27.894Z,31.41
2022-10-10T10:10:23.733Z,31.53
2022-10-10T10:12:52.271Z,32.20
2022-10-10T10:15:29.977Z,33.72
2022-10-10T10:18:25.827Z,34.57
2022-10-10T10:21:03.453Z,34.54
2022-10-10T10:23:42.586Z,34.40
2022-10-10T10:26:30.268Z,34.55
2022-10-10T10:28:58.462Z,34.82
2022-10-10T10:31:44.820Z,34.72
2022-10-10T10:34:45.403Z,34.17
2022-10-10T10:37:39.627Z,33.89
2022-10-10T10:40:30.267Z,34.32
2022-10-10T10:43:33.123Z,34.67
2022-10-10T10:46:55.543Z,33.95
2022-10-10T10:49:38.731Z,34.16
2022-10-10T10:52:36.394Z,34.04
2022-10-10T10:55:50.944Z,34.58
2022-10-10T11:02:08.161Z,35.72
2022-10-10T11:05:25.126Z,36.29
2022-10-10T11:08:10.152Z,36.48
2022-10-10T11:11:14.327Z,36.02
2022-10-10T11:14:13.900Z,35.86
2022-10-10T11:17:32.560Z,34.47
2022-10-10T11:20:38.956Z,33.75
2022-10-10T11:23:32.705Z,33.75
2022-10-10T11:26:09.096Z,33.39
2022-10-10T11:28:49.710Z,33.25
2022-10-10T11:31:44.816Z,33.21
2022-10-10T11:34:28.229Z,33.10
2022-10-10T11:37:11.130Z,32.80
2022-10-10T11:40:01.365Z,31.71
2022-10-10T11:42:48.872Z,31.53
2022-10-10T11:45:25.972Z,31.66
2022-10-10T11:48:25.503Z,30.71
2022-10-10T11:51:22.738Z,31.24
2022-10-10T11:53:55.188Z,31.05
2022-10-10T11:56:34.538Z,30.64
2022-10-10T11:59:22.918Z,30.88
2022-10-10T12:01:55.257Z,30.10
2022-10-10T12:04:23.719Z,30.50
2022-10-10T12:07:04.902Z,30.36
2022-10-10T12:09:39.354Z,30.39
2022-10-10T12:12:17.489Z,29.85
2022-10-10T12:14:54.114Z,30.21
2022-10-10T12:17:33.483Z,30.12
2022-10-10T12:20:16.756Z,28.75
2022-10-10T12:22:44.538Z,29.01
2022-10-10T12:25:25.784Z,28.68
2022-10-10T12:28:13.405Z,28.59
2022-10-10T12:30:58.149Z,28.03
2022-10-10T12:33:31.709Z,28.15
2022-10-10T12:36:21.644Z,28.05
2022-10-10T12:39:06.520Z,26.43
2022-10-10T12:41:56.446Z,26.21
2022-10-10T12:44:25.101Z,26.58
2022-10-10T12:47:16.899Z,26.47
2022-10-10T12:49:50.919Z,26.30
2022-10-10T12:53:00.196Z,25.95
2022-10-10T12:55:46.925Z,24.75
2022-10-10T12:58:37.435Z,23.95
2022-10-10T13:01:22.211Z,24.24
2022-10-10T13:03:52.082Z,23.96
2022-10-10T13:06:38.838Z,23.61
2022-10-10T13:09:22.491Z,23.47
2022-10-10T13:11:56.284Z,22.72
2022-10-10T13:14:25.214Z,22.75
2022-10-10T13:16:53.487Z,22.73
2022-10-10T13:19:25.264Z,22.22
2022-10-10T13:21:55.365Z,21.91
2022-10-10T13:24:31.802Z,21.62
2022-10-10T13:26:59.199Z,21.34
2022-10-10T13:29:36.209Z,21.35
2022-10-10T13:32:35.399Z,21.34
2022-10-10T13:35:08.447Z,20.97
2022-10-10T13:37:36.192Z,20.68
2022-10-10T13:40:03.962Z,20.63
2022-10-10T13:42:39.333Z,20.47
2022-10-10T13:45:31.016Z,20.41
2022-10-10T13:48:01.281Z,20.38
2022-10-10T13:50:31.694Z,20.29
2022-10-10T13:53:24.438Z,20.13
2022-10-10T13:56:25.741Z,20.13
2022-10-10T13:59:12.454Z,20.05
2022-10-10T14:01:46.914Z,19.87
2022-10-10T14:04:15.644Z,19.80
2022-10-10T14:07:00.271Z,19.64
2022-10-10T14:09:37.348Z,19.59
2022-10-10T14:12:08.675Z,19.52
2022-10-10T14:14:47.802Z,19.41
2022-10-10T14:17:16.261Z,19.17
2022-10-10T14:19:46.429Z,19.02
2022-10-10T14:22:13.887Z,19.08
2022-10-10T14:24:41.318Z,19.02
2022-10-10T14:27:24.893Z,18.80
2022-10-10T14:29:55.040Z,18.66
2022-10-10T14:32:23.146Z,18.52
2022-10-10T14:34:50.515Z,18.40
2022-10-10T14:37:29.226Z,18.41
2022-10-10T14:39:56.668Z,18.18
2022-10-10T14:42:25.791Z,17.93
2022-10-10T14:44:53.081Z,17.88
2022-10-10T14:47:23.944Z,17.79
2022-10-10T14:49:53.477Z,17.66
2022-10-10T14:52:20.939Z,17.54
2022-10-10T14:54:48.141Z,17.40
2022-10-10T14:57:15.667Z,17.26
2022-10-10T14:59:48.342Z,17.24
2022-10-10T15:02:22.388Z,17.05
2022-10-10T15:04:50.486Z,16.92
2022-10-10T15:07:18.512Z,16.82
2022-10-10T15:12:39.755Z,16.76
2022-10-10T15:15:09.119Z,16.77
2022-10-10T15:17:36.547Z,16.70
2022-10-10T15:20:10.084Z,16.58
2022-10-10T15:22:37.698Z,16.41
2022-10-10T15:25:06.550Z,16.33
2022-10-10T15:27:34.065Z,16.10
2022-10-10T15:30:01.486Z,15.96
2022-10-10T15:32:28.905Z,15.99
2022-10-10T15:34:56.386Z,15.86
2022-10-10T15:37:27.450Z,15.72
2022-10-10T15:39:55.095Z,15.68
2022-10-10T15:42:23.272Z,15.57
2022-10-10T15:44:51.635Z,15.45
2022-10-10T15:47:20.991Z,15.50
2022-10-10T15:49:48.848Z,15.43
2022-10-10T15:52:17.228Z,15.24
2022-10-10T15:54:48.575Z,15.18
2022-10-10T15:57:18.783Z,15.18
2022-10-10T15:59:47.434Z,15.22
2022-10-10T16:02:15.643Z,15.29
2022-10-10T16:04:43.356Z,15.20
2022-10-10T16:07:29.853Z,15.21
2022-10-10T16:09:59.076Z,15.05
2022-10-10T16:12:26.377Z,14.93
2022-10-10T16:14:53.730Z,14.98
2022-10-10T16:17:23.387Z,14.97
2022-10-10T16:19:51.490Z,15.05
2022-10-10T16:22:18.898Z,15.06
2022-10-10T16:24:58.294Z,15.06
2022-10-10T16:27:32.258Z,14.97
2022-10-10T16:29:59.500Z,14.95
2022-10-10T16:32:26.738Z,14.91
2022-10-10T16:34:53.884Z,14.89
2022-10-10T16:37:21.092Z,14.86
2022-10-10T16:39:48.419Z,14.70
2022-10-10T16:42:18.309Z,14.57
2022-10-10T16:44:46.333Z,14.47
2022-10-10T16:47:13.650Z,14.56
2022-10-10T16:49:40.859Z,14.46
2022-10-10T16:52:08.494Z,14.43
2022-10-10T16:54:35.778Z,14.48
2022-10-10T16:57:03.027Z,14.51
2022-10-10T16:59:30.543Z,14.43
2022-10-10T17:01:57.858Z,14.20
2022-10-10T17:04:25.022Z,14.19
2022-10-10T17:06:52.283Z,14.21
2022-10-10T17:09:19.615Z,14.14
2022-10-10T17:11:51.059Z,14.05
2022-10-10T17:14:19.200Z,13.92
2022-10-10T17:17:11.174Z,13.90
2022-10-10T17:19:34.271Z,13.85
2022-10-10T17:22:01.686Z,13.71
2022-10-10T17:24:29.000Z,13.81
2022-10-10T17:26:56.419Z,14.00
2022-10-10T17:29:23.858Z,14.15
2022-10-10T17:31:51.134Z,14.13
2022-10-10T17:34:18.348Z,14.19
2022-10-10T17:36:45.642Z,14.11
2022-10-10T17:39:12.980Z,14.01
2022-10-10T17:41:40.657Z,13.84
2022-10-10T17:44:10.887Z,13.81
2022-10-10T17:46:39.175Z,13.83
2022-10-10T17:49:09.843Z,13.62
2022-10-10T17:51:39.712Z,13.64
2022-10-10T17:54:08.340Z,13.57
2022-10-10T17:56:36.088Z,13.47
2022-10-10T17:59:06.512Z,13.40
2022-10-10T18:01:35.906Z,13.37
2022-10-10T18:04:03.804Z,13.37
2022-10-10T18:06:31.764Z,13.39
2022-10-10T18:09:00.018Z,13.19
2022-10-10T18:11:31.060Z,13.11
2022-10-10T18:14:00.827Z,13.17
2022-10-10T18:16:34.600Z,13.26
2022-10-10T18:19:04.254Z,13.22
2022-10-10T18:21:31.727Z,13.06
2022-10-10T18:23:59.199Z,12.99
2022-10-10T18:26:32.166Z,12.99
2022-10-10T18:28:59.714Z,13.27
2022-10-10T18:31:34.304Z,13.27
2022-10-10T18:34:03.317Z,13.20
2022-10-10T18:36:34.718Z,13.12
2022-10-10T18:39:08.001Z,12.97
2022-10-10T18:41:36.001Z,12.95
2022-10-10T18:44:07.439Z,12.79
2022-10-10T18:46:35.478Z,12.52
2022-10-10T18:49:05.747Z,12.49
2022-10-10T18:51:33.489Z,12.40
2022-10-10T18:54:08.626Z,12.23
2022-10-10T18:56:38.584Z,12.14
2022-10-10T18:59:15.796Z,11.96
2022-10-10T19:01:45.735Z,11.97
2022-10-10T19:04:15.500Z,11.91
2022-10-10T19:06:43.623Z,11.77
2022-10-10T19:09:14.613Z,11.78
2022-10-10T19:11:44.433Z,11.71
2022-10-10T19:14:16.438Z,11.94
2022-10-10T19:16:45.499Z,11.81
2022-10-10T19:19:18.734Z,11.69
2022-10-10T19:21:48.153Z,11.60
2022-10-10T19:24:19.667Z,11.72
2022-10-10T19:26:53.191Z,11.75
2022-10-10T19:29:21.115Z,11.87
2022-10-10T19:31:48.385Z,11.75
2022-10-10T19:34:16.148Z,11.58
2022-10-10T19:36:44.857Z,11.45
2022-10-10T19:39:12.230Z,11.31
2022-10-10T19:41:39.792Z,11.31
2022-10-10T19:44:07.180Z,11.32
2022-10-10T19:46:37.237Z,11.26
2022-10-10T19:49:05.663Z,11.23
2022-10-10T19:51:32.944Z,11.21
2022-10-10T19:54:00.334Z,11.16
2022-10-10T19:56:28.323Z,11.18
2022-10-10T19:58:58.523Z,11.07
2022-10-10T20:01:30.121Z,10.92
2022-10-10T20:03:59.179Z,10.92
2022-10-10T20:06:27.372Z,10.85
2022-10-10T20:08:55.202Z,10.81
2022-10-10T20:11:23.765Z,10.86
2022-10-10T20:13:56.073Z,10.89
2022-10-10T20:16:26.710Z,10.81
2022-10-10T20:18:57.231Z,10.75
2022-10-10T20:21:31.651Z,10.82
2022-10-10T20:24:07.469Z,10.75
2022-10-10T20:26:36.049Z,10.69
2022-10-10T20:29:04.211Z,10.65
2022-10-10T20:31:35.157Z,10.67
2022-10-10T20:34:05.607Z,10.66
2022-10-10T20:36:34.761Z,10.67
2022-10-10T20:39:08.869Z,10.66
2022-10-10T20:41:38.458Z,10.71
2022-10-10T20:44:08.227Z,10.81
2022-10-10T20:46:38.704Z,10.80
2022-10-10T20:49:12.290Z,10.84
2022-10-10T20:51:39.939Z,10.98
2022-10-10T20:54:08.086Z,11.06
2022-10-10T20:56:36.027Z,11.14
2022-10-10T20:59:03.719Z,11.20
2022-10-10T21:01:31.603Z,11.18
2022-10-10T21:03:59.739Z,11.23
2022-10-10T21:06:31.256Z,11.25
2022-10-10T21:09:02.251Z,11.27
2022-10-10T21:11:29.550Z,11.29
2022-10-10T21:13:59.481Z,11.32
2022-10-10T21:16:40.216Z,11.35
2022-10-10T21:19:09.524Z,11.40
2022-10-10T21:21:37.254Z,11.41
2022-10-10T21:24:07.391Z,11.41
2022-10-10T21:26:34.996Z,11.42
2022-10-10T21:29:02.874Z,11.42
2022-10-10T21:31:34.483Z,11.49
2022-10-10T21:34:04.213Z,11.67
2022-10-10T21:36:32.704Z,11.67
2022-10-10T21:39:01.615Z,11.69
2022-10-10T21:41:29.202Z,11.77
2022-10-10T21:43:58.846Z,11.80
2022-10-10T21:46:36.853Z,11.70
2022-10-10T21:49:11.231Z,11.69
2022-10-10T21:51:45.610Z,11.67
2022-10-10T21:54:13.604Z,11.63
2022-10-10T21:56:41.035Z,11.65
2022-10-10T21:59:08.574Z,11.66
2022-10-10T22:01:37.571Z,11.69
2022-10-10T22:04:06.009Z,11.73
2022-10-10T22:06:33.770Z,11.78
2022-10-10T22:09:01.956Z,11.78
2022-10-10T22:11:32.516Z,11.77
2022-10-10T22:14:02.559Z,11.77
2022-10-10T22:16:32.106Z,11.80
2022-10-10T22:19:00.404Z,11.79
2022-10-10T22:21:31.861Z,11.77
2022-10-10T22:24:02.870Z,11.74
2022-10-10T22:26:30.910Z,11.74
2022-10-10T22:28:58.648Z,11.75
2022-10-10T22:31:26.744Z,11.77
2022-10-10T22:33:53.908Z,11.78
2022-10-10T22:36:21.157Z,11.76
2022-10-10T22:38:48.293Z,11.60
2022-10-10T22:41:15.629Z,11.48
2022-10-10T22:43:42.961Z,11.36
2022-10-10T22:46:10.201Z,11.27
2022-10-10T22:48:37.866Z,11.20
2022-10-10T22:51:14.869Z,11.08
2022-10-10T22:53:43.895Z,11.04
2022-10-10T22:56:15.432Z,11.02
2022-10-10T22:58:43.628Z,11.02
2022-10-10T23:01:18.496Z,10.96
2022-10-10T23:03:46.462Z,10.97
2022-10-10T23:06:13.979Z,10.95
2022-10-10T23:08:41.205Z,10.91
2022-10-10T23:11:08.724Z,10.87
2022-10-10T23:13:36.040Z,10.94
2022-10-10T23:16:04.354Z,10.95
2022-10-10T23:18:32.458Z,10.92
2022-10-10T23:21:00.180Z,10.96
2022-10-10T23:23:27.547Z,11.00
2022-10-10T23:25:54.988Z,11.05
2022-10-10T23:28:22.313Z,11.06
2022-10-10T23:30:49.689Z,11.04
2022-10-10T23:33:17.612Z,11.02
2022-10-10T23:35:44.980Z,11.02
2022-10-10T23:38:12.291Z,10.92
2022-10-10T23:40:39.531Z,10.92
2022-10-10T23:43:07.495Z,10.94
2022-10-10T23:45:34.702Z,10.96
2022-10-10T23:48:01.925Z,10.89
2022-10-10T23:50:30.053Z,10.88
2022-10-10T23:52:57.437Z,10.92
2022-10-10T23:55:24.694Z,10.90
2022-10-10T23:57:51.989Z,10.82
